createdAt,value
2023-03-13T00:01:57.182Z,14.70
2023-03-13T00:07:19.751Z,18.30
2023-03-13T00:12:41.577Z,10.80
2023-03-13T00:18:03.511Z,11.10
2023-03-13T00:23:25.329Z,13.60
2023-03-13T00:28:48.371Z,12.40
2023-03-13T00:34:11.186Z,11.90
2023-03-13T00:39:33.138Z,12.50
2023-03-13T00:44:56.872Z,11.60
2023-03-13T00:50:21.737Z,8.30
2023-03-13T00:55:56.983Z,20.20
2023-03-13T01:01:21.631Z,9.50
2023-03-13T01:06:43.549Z,10.40
2023-03-13T01:12:05.850Z,9.70
2023-03-13T01:17:28.147Z,6.90
2023-03-13T01:22:49.844Z,8.70
2023-03-13T01:28:11.473Z,10.60
2023-03-13T01:33:33.788Z,12.60
2023-03-13T01:38:58.436Z,10.20
2023-03-13T01:44:25.592Z,8.20
2023-03-13T01:49:51.119Z,10.30
2023-03-13T01:55:27.214Z,10.10
2023-03-13T02:00:49.344Z,11.20
2023-03-13T02:06:11.373Z,11.40
2023-03-13T02:11:41.364Z,12.80
2023-03-13T02:17:04.670Z,10.30
2023-03-13T02:22:28.862Z,11.40
2023-03-13T02:28:05.234Z,9.90
2023-03-13T02:33:31.421Z,10.80
2023-03-13T02:38:57.550Z,9.70
2023-03-13T02:44:19.991Z,10.10
2023-03-13T02:49:41.968Z,10.50
2023-03-13T02:55:07.917Z,10.70
2023-03-13T03:00:30.301Z,8.10
2023-03-13T03:05:53.904Z,10.50
2023-03-13T03:11:16.415Z,8.50
2023-03-13T03:16:41.100Z,10.30
2023-03-13T03:22:03.659Z,10.50
2023-03-13T03:27:27.140Z,10.50
2023-03-13T03:32:50.434Z,12.40
2023-03-13T03:38:12.597Z,10.40
2023-03-13T03:43:34.708Z,10.80
2023-03-13T03:48:57.938Z,10.40
2023-03-13T03:54:22.770Z,13.30
2023-03-13T03:59:44.385Z,12.70
2023-03-13T04:05:07.007Z,19.50
2023-03-13T04:10:31.993Z,14.50
2023-03-13T04:15:53.878Z,14.00
2023-03-13T04:21:16.213Z,14.20
2023-03-13T04:26:42.651Z,14.20
2023-03-13T04:32:04.882Z,17.40
2023-03-13T04:37:33.639Z,15.20
2023-03-13T04:43:21.054Z,15.40
2023-03-13T04:48:53.804Z,15.40
2023-03-13T04:54:27.091Z,15.80
2023-03-13T04:59:49.219Z,13.50
2023-03-13T05:05:17.749Z,15.00
2023-03-13T05:11:03.688Z,14.10
2023-03-13T05:16:51.711Z,14.70
2023-03-13T05:22:32.402Z,15.70
2023-03-13T05:28:10.396Z,22.50
2023-03-13T05:33:49.883Z,17.40
2023-03-13T05:39:36.719Z,19.20
2023-03-13T05:45:15.494Z,20.10
2023-03-13T05:50:43.032Z,19.90
2023-03-13T05:56:23.865Z,16.00
2023-03-13T06:02:14.835Z,16.80
2023-03-13T06:07:38.609Z,14.90
2023-03-13T06:13:17.182Z,17.40
2023-03-13T06:18:42.435Z,17.10
2023-03-13T06:24:04.220Z,16.10
2023-03-13T06:29:26.379Z,18.50
2023-03-13T06:34:48.281Z,11.70
2023-03-13T06:40:11.401Z,13.10
2023-03-13T06:45:36.089Z,13.20
2023-03-13T06:50:57.906Z,12.60
2023-03-13T06:56:21.995Z,11.80
2023-03-13T07:01:43.785Z,13.90
2023-03-13T07:07:05.894Z,13.20
2023-03-13T07:12:27.913Z,13.50
2023-03-13T07:17:50.195Z,16.40
2023-03-13T07:23:11.838Z,15.30
2023-03-13T07:28:36.473Z,13.00
2023-03-13T07:34:00.104Z,13.30
2023-03-13T07:39:21.913Z,12.40
2023-03-13T07:44:44.131Z,15.20
2023-03-13T07:50:06.854Z,12.90
2023-03-13T07:55:31.021Z,13.30
2023-03-13T08:00:52.831Z,17.10
2023-03-13T08:06:17.147Z,14.60
2023-03-13T08:11:44.725Z,12.80
2023-03-13T08:17:06.973Z,12.70
2023-03-13T08:22:28.944Z,10.60
2023-03-13T08:27:51.100Z,15.80
2023-03-13T08:33:12.828Z,12.60
2023-03-13T08:38:34.859Z,15.10
2023-03-13T08:43:57.999Z,12.70
2023-03-13T08:49:20.056Z,15.70
2023-03-13T08:54:42.257Z,11.70
2023-03-13T09:00:06.782Z,14.70
2023-03-13T09:05:28.620Z,12.70
2023-03-13T09:10:58.158Z,10.30
2023-03-13T09:16:23.068Z,8.60
2023-03-13T09:21:46.664Z,8.60
2023-03-13T09:27:08.653Z,21.30
2023-03-13T09:32:30.701Z,14.60
2023-03-13T09:37:52.749Z,20.80
2023-03-13T09:43:31.131Z,14.70
2023-03-13T09:48:57.700Z,45.00
2023-03-13T09:54:29.291Z,18.60
2023-03-13T10:00:01.102Z,24.00
2023-03-13T10:05:28.680Z,13.10
2023-03-13T10:11:02.935Z,11.30
2023-03-13T10:16:27.895Z,11.90
2023-03-13T10:21:53.004Z,10.10
2023-03-13T10:27:16.135Z,10.40
2023-03-13T10:32:38.171Z,22.60
2023-03-13T10:38:07.067Z,28.00
2023-03-13T10:43:29.785Z,18.20
2023-03-13T10:48:54.586Z,13.30
2023-03-13T10:54:37.613Z,14.20
2023-03-13T11:00:28.257Z,12.20
2023-03-13T11:05:58.660Z,23.10
2023-03-13T11:11:20.912Z,24.40
2023-03-13T11:16:49.630Z,16.90
2023-03-13T11:22:31.467Z,13.60
2023-03-13T11:28:15.220Z,10.00
2023-03-13T11:34:02.796Z,13.80
2023-03-13T11:39:37.672Z,45.30
2023-03-13T11:45:06.919Z,17.40
2023-03-13T11:51:14.529Z,14.70
2023-03-13T11:56:53.099Z,18.20
2023-03-13T12:02:33.133Z,13.10
2023-03-13T12:08:11.176Z,23.30
2023-03-13T12:13:36.641Z,13.80
2023-03-13T12:18:59.157Z,12.40
2023-03-13T12:24:27.920Z,31.20
2023-03-13T12:30:02.981Z,25.30
2023-03-13T12:35:35.155Z,14.90
2023-03-13T12:41:08.620Z,15.20
2023-03-13T12:47:04.866Z,25.50
2023-03-13T12:52:51.813Z,25.50
2023-03-13T12:58:31.878Z,27.20
2023-03-13T13:04:06.227Z,23.80
2023-03-13T13:09:33.631Z,18.40
2023-03-13T13:14:58.195Z,17.70
2023-03-13T13:20:35.218Z,31.00
2023-03-13T13:26:29.793Z,26.60
2023-03-13T13:31:52.085Z,22.70
2023-03-13T13:37:20.045Z,16.80
2023-03-13T13:42:47.895Z,15.60
2023-03-13T13:48:35.980Z,15.60
2023-03-13T13:54:17.941Z,22.60
2023-03-13T13:59:43.264Z,14.20
2023-03-13T14:05:16.288Z,40.60
2023-03-13T14:10:40.765Z,30.70
2023-03-13T14:16:27.412Z,69.90
2023-03-13T14:21:49.520Z,29.50
2023-03-13T14:27:16.962Z,27.20
2023-03-13T14:32:39.637Z,23.20
2023-03-13T14:38:03.123Z,18.60
2023-03-13T14:43:30.871Z,25.00
2023-03-13T14:48:56.239Z,21.20
2023-03-13T14:54:45.564Z,20.50
2023-03-13T15:00:34.417Z,21.10
2023-03-13T15:06:10.048Z,19.50
2023-03-13T15:11:34.212Z,16.40
2023-03-13T15:16:55.781Z,17.00
2023-03-13T15:22:19.253Z,13.20
2023-03-13T15:27:41.173Z,15.40
2023-03-13T15:33:03.621Z,26.70
2023-03-13T15:38:27.335Z,12.90
2023-03-13T15:43:52.978Z,17.60
2023-03-13T15:49:14.710Z,27.00
2023-03-13T15:54:36.939Z,21.30
2023-03-13T15:59:58.978Z,22.40
2023-03-13T16:05:23.808Z,27.80
2023-03-13T16:10:46.745Z,23.10
2023-03-13T16:16:20.614Z,15.60
2023-03-13T16:21:48.387Z,21.90
2023-03-13T16:27:15.800Z,15.50
2023-03-13T16:32:37.602Z,14.30
2023-03-13T16:37:59.890Z,18.50
2023-03-13T16:43:21.650Z,17.70
2023-03-13T16:48:44.700Z,17.60
2023-03-13T16:54:06.870Z,14.70
2023-03-13T16:59:28.800Z,17.20
2023-03-13T17:04:50.741Z,19.60
2023-03-13T17:10:21.042Z,16.00
2023-03-13T17:15:42.920Z,15.60
2023-03-13T17:21:06.561Z,16.00
2023-03-13T17:26:36.413Z,22.60
2023-03-13T17:31:58.423Z,13.40
2023-03-13T17:37:21.860Z,16.40
2023-03-13T17:42:43.690Z,15.10
2023-03-13T17:48:09.078Z,13.80
2023-03-13T17:53:30.852Z,23.40
2023-03-13T17:58:57.725Z,28.70
2023-03-13T18:04:19.938Z,27.30
2023-03-13T18:09:41.772Z,31.90
2023-03-13T18:15:04.820Z,34.10
2023-03-13T18:20:32.850Z,39.80
2023-03-13T18:25:58.001Z,42.10
2023-03-13T18:31:20.062Z,45.90
2023-03-13T18:36:42.914Z,39.10
2023-03-13T18:42:05.289Z,38.80
2023-03-13T18:47:28.939Z,32.00
2023-03-13T18:52:52.550Z,24.90
2023-03-13T18:58:16.595Z,33.60
2023-03-13T19:03:38.721Z,35.00
2023-03-13T19:09:05.948Z,24.80
2023-03-13T19:14:34.038Z,39.20
2023-03-13T19:19:57.822Z,41.10
2023-03-13T19:25:22.388Z,28.50
2023-03-13T19:30:50.063Z,21.50
2023-03-13T19:36:14.702Z,16.90
2023-03-13T19:41:37.159Z,14.90
2023-03-13T19:47:00.664Z,23.20
2023-03-13T19:52:24.390Z,15.90
2023-03-13T19:57:48.631Z,14.90
2023-03-13T20:03:13.296Z,17.70
2023-03-13T20:08:35.396Z,21.90
2023-03-13T20:13:57.830Z,15.50
2023-03-13T20:19:21.660Z,17.50
2023-03-13T20:24:43.691Z,12.30
2023-03-13T20:30:06.427Z,13.80
2023-03-13T20:35:28.574Z,11.60
2023-03-13T20:40:55.218Z,10.90
2023-03-13T20:46:17.366Z,9.30
2023-03-13T20:51:39.962Z,18.80
2023-03-13T20:57:02.659Z,14.80
2023-03-13T21:02:25.732Z,12.60
2023-03-13T21:07:48.454Z,11.60
2023-03-13T21:13:12.893Z,16.00
2023-03-13T21:18:37.622Z,14.70
2023-03-13T21:23:59.286Z,10.70
2023-03-13T21:29:21.294Z,12.20
2023-03-13T21:34:44.361Z,14.00
2023-03-13T21:40:07.604Z,15.90
2023-03-13T21:45:29.189Z,12.60
2023-03-13T21:50:54.332Z,15.40
2023-03-13T21:56:17.457Z,18.20
2023-03-13T22:01:39.389Z,20.70
2023-03-13T22:07:01.321Z,16.40
2023-03-13T22:12:23.998Z,17.00
2023-03-13T22:17:46.007Z,20.20
2023-03-13T22:23:10.529Z,13.90
2023-03-13T22:28:32.345Z,11.60
2023-03-13T22:33:54.381Z,14.30
2023-03-13T22:39:17.213Z,10.60
2023-03-13T22:44:39.137Z,11.30
2023-03-13T22:50:01.379Z,11.40
2023-03-13T22:55:23.299Z,13.20
2023-03-13T23:00:45.274Z,14.50
2023-03-13T23:06:11.773Z,18.80
2023-03-13T23:11:34.463Z,25.40
2023-03-13T23:16:57.235Z,25.90
2023-03-13T23:22:21.993Z,25.80
2023-03-13T23:27:47.067Z,23.40
2023-03-13T23:33:08.970Z,18.20
2023-03-13T23:38:31.219Z,17.10
2023-03-13T23:43:55.498Z,18.60
2023-03-13T23:49:17.245Z,22.10
2023-03-13T23:54:39.372Z,9.30
